createdAt,value
2019-01-11T00:01:51.106Z,1.90
2019-01-11T00:04:19.486Z,1.90
2019-01-11T00:06:47.877Z,1.90
2019-01-11T00:09:17.229Z,1.90
2019-01-11T00:11:45.630Z,1.90
2019-01-11T00:14:14.010Z,1.90
2019-01-11T00:16:42.417Z,1.80
2019-01-11T00:19:10.814Z,1.90
2019-01-11T00:21:39.206Z,1.90
2019-01-11T00:24:07.598Z,1.90
2019-01-11T00:26:35.977Z,1.90
2019-01-11T00:29:04.510Z,1.90
2019-01-11T00:31:32.957Z,1.90
2019-01-11T00:34:01.355Z,1.90
2019-01-11T00:36:29.734Z,1.90
2019-01-11T00:38:59.567Z,2.00
2019-01-11T00:41:28.164Z,2.00
2019-01-11T00:43:56.546Z,2.00
2019-01-11T00:46:24.938Z,2.00
2019-01-11T00:48:53.318Z,2.00
2019-01-11T00:51:21.710Z,2.00
2019-01-11T00:53:50.159Z,2.00
2019-01-11T00:56:18.546Z,2.00
2019-01-11T00:58:46.930Z,2.00
2019-01-11T01:01:15.390Z,2.00
2019-01-11T01:03:43.770Z,1.90
2019-01-11T01:06:12.174Z,2.00
2019-01-11T01:08:40.497Z,2.00
2019-01-11T01:11:08.825Z,2.00
2019-01-11T01:13:37.221Z,2.00
2019-01-11T01:16:05.611Z,2.00
2019-01-11T01:18:34.007Z,2.10
2019-01-11T01:21:02.378Z,2.10
2019-01-11T01:23:30.770Z,2.10
2019-01-11T01:25:59.150Z,2.00
2019-01-11T01:28:27.579Z,2.10
2019-01-11T01:30:55.958Z,2.10
2019-01-11T01:33:24.337Z,2.10
2019-01-11T01:35:52.730Z,2.10
2019-01-11T01:38:21.112Z,2.10
2019-01-11T01:40:49.497Z,2.10
2019-01-11T01:43:17.878Z,2.10
2019-01-11T01:45:46.271Z,2.00
2019-01-11T01:48:14.650Z,2.00
2019-01-11T01:50:43.050Z,2.00
2019-01-11T01:53:11.430Z,2.10
2019-01-11T01:55:39.821Z,2.10
2019-01-11T01:58:08.215Z,2.20
2019-01-11T02:00:36.594Z,2.20
2019-01-11T02:03:04.984Z,2.20
2019-01-11T02:05:33.363Z,2.20
2019-01-11T02:08:01.753Z,2.20
2019-01-11T02:10:30.139Z,2.20
2019-01-11T02:12:58.538Z,2.20
2019-01-11T02:15:26.918Z,2.20
2019-01-11T02:17:55.314Z,2.20
2019-01-11T02:20:23.705Z,2.20
2019-01-11T02:22:52.094Z,2.30
2019-01-11T02:25:20.486Z,2.20
2019-01-11T02:27:48.874Z,2.20
2019-01-11T02:30:19.937Z,2.20
2019-01-11T02:32:52.981Z,2.20
2019-01-11T02:35:18.358Z,2.20
2019-01-11T02:37:46.741Z,2.20
2019-01-11T02:40:15.538Z,2.20
2019-01-11T02:42:43.930Z,2.20
2019-01-11T02:45:15.053Z,2.30
2019-01-11T02:47:43.448Z,2.30
2019-01-11T02:50:12.467Z,2.30
2019-01-11T02:52:40.857Z,2.40
2019-01-11T02:55:10.009Z,2.40
2019-01-11T02:57:38.403Z,2.40
2019-01-11T03:00:10.254Z,2.40
2019-01-11T03:02:39.086Z,2.40
2019-01-11T03:05:07.538Z,2.50
2019-01-11T03:07:35.926Z,2.40
2019-01-11T03:10:06.715Z,2.40
2019-01-11T03:12:35.094Z,2.50
2019-01-11T03:15:04.377Z,2.50
2019-01-11T03:17:32.761Z,2.50
2019-01-11T03:20:01.156Z,2.50
2019-01-11T03:22:29.534Z,2.50
2019-01-11T03:24:57.926Z,2.50
2019-01-11T03:27:26.310Z,2.60
2019-01-11T03:29:54.686Z,2.50
2019-01-11T03:32:23.088Z,2.50
2019-01-11T03:35:08.221Z,2.50
2019-01-11T03:37:36.618Z,2.60
2019-01-11T03:40:11.203Z,2.50
2019-01-11T03:42:39.603Z,2.60
2019-01-11T03:45:10.750Z,2.50
2019-01-11T03:47:39.103Z,2.50
2019-01-11T03:50:09.925Z,2.60
2019-01-11T03:52:38.386Z,2.60
2019-01-11T03:55:09.401Z,2.60
2019-01-11T03:57:37.783Z,2.60
2019-01-11T04:00:09.575Z,2.60
2019-01-11T04:02:37.958Z,2.60
2019-01-11T04:05:07.995Z,2.60
2019-01-11T04:07:36.371Z,2.60
2019-01-11T04:10:11.197Z,2.60
2019-01-11T04:12:39.578Z,2.60
2019-01-11T04:15:10.587Z,2.60
2019-01-11T04:17:38.966Z,2.60
2019-01-11T04:20:13.614Z,2.60
2019-01-11T04:22:43.631Z,2.70
2019-01-11T04:25:13.649Z,2.70
2019-01-11T04:27:42.048Z,2.70
2019-01-11T04:30:13.113Z,2.80
2019-01-11T04:32:41.505Z,2.80
2019-01-11T04:35:09.957Z,2.80
2019-01-11T04:37:38.414Z,2.80
2019-01-11T04:40:07.163Z,2.80
2019-01-11T04:42:35.550Z,2.80
2019-01-11T04:45:04.406Z,2.80
2019-01-11T04:47:32.805Z,2.70
2019-01-11T04:50:01.194Z,2.80
2019-01-11T04:52:29.575Z,2.80
2019-01-11T04:54:57.966Z,2.90
2019-01-11T04:57:26.350Z,2.90
2019-01-11T04:59:54.741Z,3.00
2019-01-11T05:02:23.118Z,3.00
2019-01-11T05:04:51.509Z,3.00
2019-01-11T05:07:19.890Z,2.90
2019-01-11T05:09:48.305Z,3.00
2019-01-11T05:12:17.057Z,3.00
2019-01-11T05:14:45.438Z,3.00
2019-01-11T05:17:13.831Z,3.00
2019-01-11T05:19:42.283Z,2.90
2019-01-11T05:22:10.674Z,2.90
2019-01-11T05:24:39.140Z,2.80
2019-01-11T05:27:07.534Z,2.80
2019-01-11T05:29:35.918Z,2.80
2019-01-11T05:32:04.342Z,2.70
2019-01-11T05:34:32.723Z,2.70
2019-01-11T05:37:01.106Z,2.80
2019-01-11T05:39:29.504Z,2.70
2019-01-11T05:41:57.882Z,2.80
2019-01-11T05:44:26.742Z,2.80
2019-01-11T05:46:55.121Z,2.80
2019-01-11T05:49:23.514Z,2.70
2019-01-11T05:51:51.898Z,2.80
2019-01-11T05:54:20.298Z,2.80
2019-01-11T05:56:48.758Z,2.80
2019-01-11T05:59:17.142Z,2.70
2019-01-11T06:01:45.534Z,2.80
2019-01-11T06:04:15.554Z,2.70
2019-01-11T06:06:54.579Z,2.70
2019-01-11T06:09:22.964Z,2.70
2019-01-11T06:11:51.497Z,2.80
2019-01-11T06:14:19.878Z,2.80
2019-01-11T06:16:48.273Z,2.80
2019-01-11T06:19:16.650Z,2.90
2019-01-11T06:21:45.050Z,2.80
2019-01-11T06:24:13.443Z,2.80
2019-01-11T06:26:41.919Z,2.80
2019-01-11T06:29:10.302Z,2.70
2019-01-11T06:31:38.682Z,2.70
2019-01-11T06:34:07.079Z,2.70
2019-01-11T06:36:35.458Z,2.60
2019-01-11T06:39:05.745Z,2.60
2019-01-11T06:41:35.768Z,2.50
2019-01-11T06:44:04.185Z,2.50
2019-01-11T06:46:32.570Z,2.50
2019-01-11T06:49:00.954Z,2.50
2019-01-11T06:51:29.345Z,2.40
2019-01-11T06:53:57.726Z,2.50
2019-01-11T06:56:26.118Z,2.50
2019-01-11T06:58:54.498Z,2.40
2019-01-11T07:01:22.896Z,2.40
2019-01-11T07:03:51.442Z,2.30
2019-01-11T07:06:19.903Z,2.30
2019-01-11T07:08:48.281Z,2.30
2019-01-11T07:11:16.662Z,2.40
2019-01-11T07:13:45.058Z,2.30
2019-01-11T07:16:13.914Z,2.30
2019-01-11T07:18:42.305Z,2.30
2019-01-11T07:21:10.689Z,2.30
2019-01-11T07:23:39.155Z,2.30
2019-01-11T07:26:07.550Z,2.20
2019-01-11T07:28:35.941Z,2.30
2019-01-11T07:31:05.958Z,2.30
2019-01-11T07:33:34.910Z,2.30
2019-01-11T07:36:07.977Z,2.30
2019-01-11T07:38:36.358Z,2.20
2019-01-11T07:41:04.754Z,2.20
2019-01-11T07:43:33.138Z,2.30
2019-01-11T07:46:02.202Z,2.30
2019-01-11T07:48:30.578Z,2.30
2019-01-11T07:50:58.974Z,2.30
2019-01-11T07:53:27.358Z,2.40
2019-01-11T07:55:55.825Z,2.40
2019-01-11T07:58:24.206Z,2.40
2019-01-11T08:00:52.602Z,2.40
2019-01-11T08:03:21.004Z,2.50
2019-01-11T08:05:49.384Z,2.60
2019-01-11T08:08:17.774Z,2.60
2019-01-11T08:10:46.222Z,2.60
2019-01-11T08:13:14.614Z,2.60
2019-01-11T08:15:42.996Z,2.60
2019-01-11T08:18:11.404Z,2.60
2019-01-11T08:20:39.862Z,2.70
2019-01-11T08:23:08.242Z,2.70
2019-01-11T08:25:36.642Z,2.80
2019-01-11T08:28:05.010Z,2.80
2019-01-11T08:30:33.404Z,2.80
2019-01-11T08:33:01.781Z,2.80
2019-01-11T08:35:30.175Z,2.80
2019-01-11T08:37:58.554Z,2.80
2019-01-11T08:40:27.022Z,2.90
2019-01-11T08:42:55.402Z,2.90
2019-01-11T08:45:23.790Z,2.90
2019-01-11T08:47:52.178Z,2.90
2019-01-11T08:50:21.715Z,3.00
2019-01-11T08:52:50.142Z,3.00
2019-01-11T08:55:18.526Z,3.10
2019-01-11T08:57:46.985Z,3.10
2019-01-11T09:00:16.309Z,3.10
2019-01-11T09:02:44.696Z,3.20
2019-01-11T09:05:13.075Z,3.50
2019-01-11T09:07:41.526Z,3.80
2019-01-11T09:10:30.962Z,3.90
2019-01-11T09:12:59.342Z,4.00
2019-01-11T09:15:27.734Z,4.10
2019-01-11T09:17:57.758Z,4.20
2019-01-11T09:20:26.150Z,4.20
2019-01-11T09:22:54.534Z,4.00
2019-01-11T09:25:22.927Z,3.90
2019-01-11T09:27:51.301Z,3.80
2019-01-11T09:30:19.702Z,3.70
2019-01-11T09:32:48.094Z,3.60
2019-01-11T09:35:16.479Z,3.60
2019-01-11T09:37:44.871Z,3.60
2019-01-11T09:40:13.258Z,3.50
2019-01-11T09:42:41.638Z,3.40
2019-01-11T09:45:10.021Z,3.40
2019-01-11T09:47:38.414Z,3.40
2019-01-11T09:50:08.840Z,3.40
2019-01-11T09:52:37.233Z,3.40
2019-01-11T09:55:06.858Z,3.40
2019-01-11T09:57:36.029Z,3.40
2019-01-11T10:00:10.426Z,3.40
2019-01-11T10:02:39.830Z,3.40
2019-01-11T10:05:09.098Z,3.40
2019-01-11T10:07:37.549Z,3.40
2019-01-11T10:10:09.282Z,3.40
2019-01-11T10:12:37.665Z,3.40
2019-01-11T10:15:07.800Z,3.40
2019-01-11T10:17:36.246Z,3.40
2019-01-11T10:20:07.113Z,3.40
2019-01-11T10:22:35.494Z,3.40
2019-01-11T10:25:05.414Z,3.50
2019-01-11T10:27:33.874Z,3.50
2019-01-11T10:30:02.258Z,3.70
2019-01-11T10:32:30.650Z,3.70
2019-01-11T10:34:59.036Z,3.80
2019-01-11T10:37:27.430Z,3.90
2019-01-11T10:39:55.882Z,4.00
2019-01-11T10:42:24.280Z,4.10
2019-01-11T10:44:52.654Z,4.10
2019-01-11T10:47:21.054Z,4.10
2019-01-11T10:49:49.451Z,4.20
2019-01-11T10:52:17.834Z,4.10
2019-01-11T10:54:46.594Z,4.20
2019-01-11T10:57:14.977Z,4.20
2019-01-11T10:59:43.370Z,4.30
2019-01-11T11:02:11.749Z,4.40
2019-01-11T11:04:40.142Z,4.60
2019-01-11T11:07:08.522Z,4.80
2019-01-11T11:09:36.996Z,5.00
2019-01-11T11:12:05.454Z,5.40
2019-01-11T11:14:33.842Z,5.60
2019-01-11T11:17:02.229Z,5.80
2019-01-11T11:19:30.610Z,5.80
2019-01-11T11:21:59.001Z,5.80
2019-01-11T11:24:27.388Z,6.00
2019-01-11T11:26:55.774Z,6.00
2019-01-11T11:29:24.153Z,5.90
2019-01-11T11:31:52.562Z,6.00
2019-01-11T11:34:26.900Z,6.00
2019-01-11T11:36:55.498Z,6.00
2019-01-11T11:39:23.881Z,6.10
2019-01-11T11:41:52.266Z,6.20
2019-01-11T11:44:20.657Z,6.30
2019-01-11T11:46:49.038Z,6.50
2019-01-11T11:49:17.434Z,6.60
2019-01-11T11:51:45.810Z,6.90
2019-01-11T11:54:14.218Z,7.10
2019-01-11T11:56:42.610Z,7.40
2019-01-11T11:59:10.990Z,7.50
2019-01-11T12:01:39.389Z,7.60
2019-01-11T12:04:07.761Z,7.60
2019-01-11T12:06:37.218Z,7.70
2019-01-11T12:09:08.074Z,7.60
2019-01-11T12:11:36.462Z,7.80
2019-01-11T12:14:04.910Z,7.80
2019-01-11T12:16:33.297Z,7.80
2019-01-11T12:19:01.677Z,8.10
2019-01-11T12:21:30.059Z,8.20
2019-01-11T12:23:58.452Z,8.10
2019-01-11T12:26:27.202Z,7.90
2019-01-11T12:28:55.595Z,7.90
2019-01-11T12:31:23.974Z,7.90
2019-01-11T12:33:52.366Z,7.90
2019-01-11T12:36:20.749Z,7.90
2019-01-11T12:38:49.133Z,8.00
2019-01-11T12:41:17.513Z,7.80
2019-01-11T12:43:45.918Z,8.00
2019-01-11T12:46:14.302Z,7.90
2019-01-11T12:48:42.694Z,7.90
2019-01-11T12:51:11.122Z,7.90
2019-01-11T12:53:39.468Z,7.60
2019-01-11T12:56:07.858Z,7.10
2019-01-11T12:58:36.238Z,6.70
2019-01-11T13:01:04.637Z,6.30
2019-01-11T13:03:33.015Z,6.10
2019-01-11T13:06:01.517Z,5.70
2019-01-11T13:08:29.898Z,5.30
2019-01-11T13:10:58.282Z,5.00
2019-01-11T13:13:26.678Z,4.80
2019-01-11T13:15:55.059Z,4.50
2019-01-11T13:18:23.446Z,4.30
2019-01-11T13:20:51.826Z,4.20
2019-01-11T13:23:20.223Z,4.10
2019-01-11T13:25:48.603Z,4.10
2019-01-11T13:28:17.010Z,4.00
2019-01-11T13:30:45.404Z,3.90
2019-01-11T13:33:13.782Z,3.70
2019-01-11T13:35:42.173Z,3.60
2019-01-11T13:38:10.555Z,3.40
2019-01-11T13:40:38.950Z,3.30
2019-01-11T13:43:07.330Z,3.10
2019-01-11T13:45:35.729Z,3.00
2019-01-11T13:48:04.111Z,2.90
2019-01-11T13:50:34.350Z,2.90
2019-01-11T13:53:02.797Z,2.80
2019-01-11T13:55:31.185Z,2.70
2019-01-11T13:57:59.578Z,2.70
2019-01-11T14:00:27.958Z,2.60
2019-01-11T14:02:56.347Z,2.50
2019-01-11T14:05:24.898Z,2.40
2019-01-11T14:07:53.290Z,2.30
2019-01-11T14:10:21.670Z,2.30
2019-01-11T14:12:50.062Z,2.20
2019-01-11T14:15:18.443Z,2.20
2019-01-11T14:17:46.825Z,2.10
2019-01-11T14:20:15.214Z,2.10
2019-01-11T14:22:43.598Z,2.00
2019-01-11T14:25:12.530Z,1.90
2019-01-11T14:27:40.906Z,1.90
2019-01-11T14:30:19.802Z,1.80
2019-01-11T14:32:48.361Z,1.70
2019-01-11T14:35:16.755Z,1.60
2019-01-11T14:37:45.126Z,1.60
2019-01-11T14:40:15.718Z,1.50
2019-01-11T14:42:44.097Z,1.50
2019-01-11T14:45:14.821Z,1.50
2019-01-11T14:47:43.218Z,1.40
2019-01-11T14:50:14.203Z,1.50
2019-01-11T14:52:42.593Z,1.50
2019-01-11T14:55:10.982Z,1.50
2019-01-11T14:57:39.438Z,1.50
2019-01-11T15:00:16.657Z,1.40
2019-01-11T15:02:45.054Z,1.50
2019-01-11T15:05:14.469Z,1.60
2019-01-11T15:07:42.902Z,1.60
2019-01-11T15:10:12.922Z,1.60
2019-01-11T15:12:41.442Z,1.60
2019-01-11T15:15:09.905Z,1.50
2019-01-11T15:17:38.293Z,1.50
2019-01-11T15:20:12.506Z,1.50
2019-01-11T15:22:40.901Z,1.40
2019-01-11T15:25:10.422Z,1.50
2019-01-11T15:27:38.806Z,1.40
2019-01-11T15:30:10.202Z,1.50
2019-01-11T15:32:38.598Z,1.50
2019-01-11T15:35:08.114Z,1.60
2019-01-11T15:37:36.514Z,1.70
2019-01-11T15:40:14.154Z,1.70
2019-01-11T15:42:42.544Z,1.70
2019-01-11T15:45:10.921Z,1.70
2019-01-11T15:47:39.314Z,1.70
2019-01-11T15:50:11.094Z,1.70
2019-01-11T15:52:39.486Z,1.60
2019-01-11T15:55:09.705Z,1.60
2019-01-11T15:57:44.210Z,1.60
2019-01-11T16:00:18.714Z,1.60
2019-01-11T16:02:47.114Z,1.60
2019-01-11T16:05:15.693Z,1.50
2019-01-11T16:07:44.034Z,1.50
2019-01-11T16:10:18.034Z,1.50
2019-01-11T16:12:46.898Z,1.50
2019-01-11T16:15:30.382Z,1.50
2019-01-11T16:18:02.021Z,1.50
2019-01-11T16:20:30.402Z,1.50
2019-01-11T16:22:58.794Z,1.50
2019-01-11T16:25:27.247Z,1.50
2019-01-11T16:27:55.806Z,1.40
2019-01-11T16:30:24.188Z,1.50
2019-01-11T16:32:52.606Z,1.50
2019-01-11T16:35:20.986Z,1.50
2019-01-11T16:37:49.438Z,1.40
2019-01-11T16:40:17.836Z,1.40
2019-01-11T16:42:46.218Z,1.40
2019-01-11T16:45:14.981Z,1.50
2019-01-11T16:47:43.362Z,1.60
2019-01-11T16:50:17.547Z,1.70
2019-01-11T16:52:46.561Z,1.70
2019-01-11T16:55:15.119Z,1.70
2019-01-11T16:57:43.498Z,1.60
2019-01-11T17:00:15.302Z,1.60
2019-01-11T17:02:43.682Z,1.60
2019-01-11T17:05:12.074Z,1.60
2019-01-11T17:07:40.454Z,1.50
2019-01-11T17:10:11.123Z,1.50
2019-01-11T17:12:41.979Z,1.60
2019-01-11T17:15:15.424Z,1.50
2019-01-11T17:17:43.814Z,1.50
2019-01-11T17:20:14.730Z,1.50
2019-01-11T17:22:43.154Z,1.50
2019-01-11T17:25:11.534Z,1.60
2019-01-11T17:27:39.918Z,1.60
2019-01-11T17:30:14.288Z,1.60
2019-01-11T17:32:42.720Z,1.60
2019-01-11T17:35:11.154Z,1.60
2019-01-11T17:37:39.534Z,1.60
2019-01-11T17:40:10.066Z,1.50
2019-01-11T17:42:38.450Z,1.60
2019-01-11T17:45:09.278Z,1.50
2019-01-11T17:47:37.662Z,1.40
2019-01-11T17:50:09.602Z,1.30
2019-01-11T17:52:37.996Z,1.20
2019-01-11T17:55:06.655Z,1.20
2019-01-11T17:57:35.058Z,1.10
2019-01-11T18:00:04.383Z,1.20
2019-01-11T18:02:32.778Z,1.20
2019-01-11T18:05:01.170Z,1.10
2019-01-11T18:07:29.570Z,1.10
2019-01-11T18:09:57.961Z,1.10
2019-01-11T18:12:26.391Z,1.10
2019-01-11T18:14:54.814Z,1.10
2019-01-11T18:17:23.150Z,1.20
2019-01-11T18:19:51.542Z,1.30
2019-01-11T18:22:19.927Z,1.40
2019-01-11T18:24:48.334Z,1.40
2019-01-11T18:27:16.726Z,1.40
2019-01-11T18:29:45.118Z,1.30
2019-01-11T18:32:13.498Z,1.30
2019-01-11T18:34:41.890Z,1.30
2019-01-11T18:37:10.270Z,1.20
2019-01-11T18:39:38.650Z,1.20
2019-01-11T18:42:07.039Z,1.10
2019-01-11T18:44:35.420Z,1.10
2019-01-11T18:47:03.810Z,1.20
2019-01-11T18:49:32.187Z,1.20
2019-01-11T18:52:00.575Z,1.20
2019-01-11T18:54:28.954Z,1.20
2019-01-11T18:56:57.412Z,1.30
2019-01-11T18:59:25.827Z,1.30
2019-01-11T19:01:54.207Z,1.30
2019-01-11T19:04:22.594Z,1.30
2019-01-11T19:06:50.973Z,1.30
2019-01-11T19:09:19.411Z,1.40
2019-01-11T19:11:47.742Z,1.40
2019-01-11T19:14:16.130Z,1.40
2019-01-11T19:16:44.510Z,1.40
2019-01-11T19:19:12.904Z,1.40
2019-01-11T19:21:41.282Z,1.30
2019-01-11T19:24:09.743Z,1.40
2019-01-11T19:26:38.122Z,1.50
2019-01-11T19:29:06.502Z,1.50
2019-01-11T19:31:34.894Z,1.50
2019-01-11T19:34:03.414Z,1.50
2019-01-11T19:36:31.828Z,1.40
2019-01-11T19:39:00.194Z,1.50
2019-01-11T19:41:28.595Z,1.50
2019-01-11T19:43:56.970Z,1.50
2019-01-11T19:46:25.695Z,1.50
2019-01-11T19:48:54.091Z,1.50
2019-01-11T19:51:22.490Z,1.60
2019-01-11T19:53:50.886Z,1.60
2019-01-11T19:56:19.270Z,1.50
2019-01-11T19:58:47.668Z,1.60
2019-01-11T20:01:16.068Z,1.60
2019-01-11T20:03:44.434Z,1.60
2019-01-11T20:06:12.823Z,1.60
2019-01-11T20:08:41.371Z,1.50
2019-01-11T20:11:09.807Z,1.50
2019-01-11T20:13:38.174Z,1.50
2019-01-11T20:16:06.599Z,1.50
2019-01-11T20:18:34.986Z,1.40
2019-01-11T20:21:03.437Z,1.50
2019-01-11T20:23:36.554Z,1.40
2019-01-11T20:26:01.866Z,1.30
2019-01-11T20:28:30.334Z,1.30
2019-01-11T20:30:58.758Z,1.30
2019-01-11T20:33:27.150Z,1.30
2019-01-11T20:35:55.530Z,1.20
2019-01-11T20:38:23.935Z,1.30
2019-01-11T20:40:52.313Z,1.30
2019-01-11T20:43:20.710Z,1.30
2019-01-11T20:45:49.122Z,1.30
2019-01-11T20:48:17.582Z,1.20
2019-01-11T20:50:46.014Z,1.20
2019-01-11T20:53:14.409Z,1.20
2019-01-11T20:55:42.858Z,1.10
2019-01-11T20:58:11.242Z,1.10
2019-01-11T21:00:39.690Z,1.10
2019-01-11T21:03:08.113Z,1.10
2019-01-11T21:05:36.506Z,1.10
2019-01-11T21:08:04.958Z,1.10
2019-01-11T21:10:33.422Z,1.20
2019-01-11T21:13:01.825Z,1.30
2019-01-11T21:15:30.221Z,1.20
2019-01-11T21:17:58.602Z,1.20
2019-01-11T21:20:27.037Z,1.30
2019-01-11T21:22:55.411Z,1.30
2019-01-11T21:25:23.803Z,1.20
2019-01-11T21:27:52.198Z,1.20
2019-01-11T21:30:22.833Z,1.20
2019-01-11T21:32:51.225Z,1.10
2019-01-11T21:35:19.599Z,1.20
2019-01-11T21:37:47.990Z,1.20
2019-01-11T21:40:18.270Z,1.20
2019-01-11T21:42:47.350Z,1.10
2019-01-11T21:45:16.078Z,1.00
2019-01-11T21:47:44.454Z,1.00
2019-01-11T21:50:15.750Z,0.90
2019-01-11T21:52:44.131Z,0.90
2019-01-11T21:55:13.705Z,0.90
2019-01-11T21:57:42.074Z,0.90
2019-01-11T22:00:22.548Z,0.90
2019-01-11T22:02:50.931Z,1.00
2019-01-11T22:05:19.340Z,1.00
2019-01-11T22:07:47.718Z,1.00
2019-01-11T22:10:17.252Z,0.90
2019-01-11T22:12:45.611Z,0.80
2019-01-11T22:15:18.898Z,0.90
2019-01-11T22:17:47.294Z,1.00
2019-01-11T22:20:17.021Z,1.00
2019-01-11T22:22:45.429Z,0.90
2019-01-11T22:25:15.275Z,0.80
2019-01-11T22:27:43.672Z,0.90
2019-01-11T22:30:14.589Z,0.80
2019-01-11T22:32:42.994Z,0.80
2019-01-11T22:35:11.379Z,0.80
2019-01-11T22:37:39.754Z,0.80
2019-01-11T22:40:11.347Z,0.80
2019-01-11T22:42:39.726Z,0.80
2019-01-11T22:45:11.162Z,0.70
2019-01-11T22:47:39.543Z,0.70
2019-01-11T22:50:09.974Z,0.70
2019-01-11T22:52:38.354Z,0.80
2019-01-11T22:55:09.006Z,0.70
2019-01-11T22:57:37.386Z,0.80
2019-01-11T23:00:36.810Z,0.80
2019-01-11T23:03:08.458Z,0.80
2019-01-11T23:05:38.496Z,0.80
2019-01-11T23:08:08.009Z,0.70
2019-01-11T23:10:39.650Z,0.70
2019-01-11T23:13:08.077Z,0.80
2019-01-11T23:15:36.526Z,0.70
2019-01-11T23:18:05.014Z,0.70
2019-01-11T23:20:33.462Z,0.70
2019-01-11T23:23:01.838Z,0.80
2019-01-11T23:25:30.230Z,0.80
2019-01-11T23:27:58.610Z,0.80
2019-01-11T23:30:26.998Z,0.60
2019-01-11T23:32:55.377Z,0.70
2019-01-11T23:35:24.658Z,0.60
2019-01-11T23:37:53.034Z,0.60
2019-01-11T23:40:21.554Z,0.60
2019-01-11T23:42:49.937Z,0.60
2019-01-11T23:45:18.315Z,0.50
2019-01-11T23:47:46.709Z,0.50
2019-01-11T23:50:15.559Z,0.50
2019-01-11T23:52:43.946Z,0.40
2019-01-11T23:55:12.493Z,0.30
2019-01-11T23:57:40.907Z,0.20
